sensor_id;sensor_type;location;lat;lon;timestamp;temperature;humidity
71039;SHT30;58692;43.212;27.908;2022-10-16T00:01:16;13.89;67.77
71039;SHT30;58692;43.212;27.908;2022-10-16T00:03:43;13.76;67.94
71039;SHT30;58692;43.212;27.908;2022-10-16T00:06:10;13.82;67.87
71039;SHT30;58692;43.212;27.908;2022-10-16T00:08:36;13.70;68.45
71039;SHT30;58692;43.212;27.908;2022-10-16T00:11:05;13.56;68.89
71039;SHT30;58692;43.212;27.908;2022-10-16T00:13:32;13.56;68.92
71039;SHT30;58692;43.212;27.908;2022-10-16T00:15:58;13.52;69.06
71039;SHT30;58692;43.212;27.908;2022-10-16T00:18:25;13.56;68.91
71039;SHT30;58692;43.212;27.908;2022-10-16T00:20:51;13.55;68.71
71039;SHT30;58692;43.212;27.908;2022-10-16T00:23:17;13.61;68.64
71039;SHT30;58692;43.212;27.908;2022-10-16T00:25:42;13.54;68.89
71039;SHT30;58692;43.212;27.908;2022-10-16T00:28:08;13.44;69.12
71039;SHT30;58692;43.212;27.908;2022-10-16T00:30:33;13.35;69.32
71039;SHT30;58692;43.212;27.908;2022-10-16T00:33:02;13.41;69.16
71039;SHT30;58692;43.212;27.908;2022-10-16T00:35:27;13.19;69.74
71039;SHT30;58692;43.212;27.908;2022-10-16T00:37:54;13.10;70.10
71039;SHT30;58692;43.212;27.908;2022-10-16T00:40:19;13.11;70.00
71039;SHT30;58692;43.212;27.908;2022-10-16T00:42:45;13.16;69.81
71039;SHT30;58692;43.212;27.908;2022-10-16T00:45:11;13.25;69.47
71039;SHT30;58692;43.212;27.908;2022-10-16T00:47:41;13.26;69.42
71039;SHT30;58692;43.212;27.908;2022-10-16T00:52:49;13.12;69.66
71039;SHT30;58692;43.212;27.908;2022-10-16T00:55:16;13.21;69.49
71039;SHT30;58692;43.212;27.908;2022-10-16T00:57:43;13.16;69.43
71039;SHT30;58692;43.212;27.908;2022-10-16T01:00:16;13.08;69.28
71039;SHT30;58692;43.212;27.908;2022-10-16T01:02:42;13.08;69.47
71039;SHT30;58692;43.212;27.908;2022-10-16T01:05:08;13.12;69.30
71039;SHT30;58692;43.212;27.908;2022-10-16T01:08:01;12.98;69.59
71039;SHT30;58692;43.212;27.908;2022-10-16T01:10:30;12.90;69.79
71039;SHT30;58692;43.212;27.908;2022-10-16T01:13:09;12.91;69.67
71039;SHT30;58692;43.212;27.908;2022-10-16T01:18:33;12.91;69.65
71039;SHT30;58692;43.212;27.908;2022-10-16T01:21:04;12.90;69.62
71039;SHT30;58692;43.212;27.908;2022-10-16T01:26:24;12.50;70.79
71039;SHT30;58692;43.212;27.908;2022-10-16T01:28:58;12.59;70.58
71039;SHT30;58692;43.212;27.908;2022-10-16T01:31:30;12.60;70.40
71039;SHT30;58692;43.212;27.908;2022-10-16T01:34:05;12.67;70.16
71039;SHT30;58692;43.212;27.908;2022-10-16T01:36:38;12.39;71.11
71039;SHT30;58692;43.212;27.908;2022-10-16T01:39:06;12.50;70.76
71039;SHT30;58692;43.212;27.908;2022-10-16T01:41:38;12.47;70.80
71039;SHT30;58692;43.212;27.908;2022-10-16T01:44:10;12.60;70.21
71039;SHT30;58692;43.212;27.908;2022-10-16T01:46:39;12.33;70.65
71039;SHT30;58692;43.212;27.908;2022-10-16T01:49:06;12.34;70.49
71039;SHT30;58692;43.212;27.908;2022-10-16T01:51:33;12.32;70.88
71039;SHT30;58692;43.212;27.908;2022-10-16T01:54:01;12.43;70.47
71039;SHT30;58692;43.212;27.908;2022-10-16T01:56:27;12.25;70.98
71039;SHT30;58692;43.212;27.908;2022-10-16T01:59:01;12.40;70.44
71039;SHT30;58692;43.212;27.908;2022-10-16T02:01:30;12.51;69.85
71039;SHT30;58692;43.212;27.908;2022-10-16T02:04:00;12.57;69.56
71039;SHT30;58692;43.212;27.908;2022-10-16T02:06:26;12.49;69.68
71039;SHT30;58692;43.212;27.908;2022-10-16T02:08:53;12.61;69.35
71039;SHT30;58692;43.212;27.908;2022-10-16T02:11:18;12.68;69.21
71039;SHT30;58692;43.212;27.908;2022-10-16T02:13:46;12.56;68.98
71039;SHT30;58692;43.212;27.908;2022-10-16T02:16:13;12.65;68.88
71039;SHT30;58692;43.212;27.908;2022-10-16T02:18:40;12.60;68.78
71039;SHT30;58692;43.212;27.908;2022-10-16T02:21:18;12.44;69.08
71039;SHT30;58692;43.212;27.908;2022-10-16T02:24:03;12.50;68.68
71039;SHT30;58692;43.212;27.908;2022-10-16T02:26:48;12.29;69.34
71039;SHT30;58692;43.212;27.908;2022-10-16T02:29:17;12.33;68.93
71039;SHT30;58692;43.212;27.908;2022-10-16T02:31:48;12.36;69.09
71039;SHT30;58692;43.212;27.908;2022-10-16T02:34:16;12.28;68.91
71039;SHT30;58692;43.212;27.908;2022-10-16T02:36:44;12.26;68.84
71039;SHT30;58692;43.212;27.908;2022-10-16T02:39:12;12.10;68.49
71039;SHT30;58692;43.212;27.908;2022-10-16T02:41:37;12.13;68.75
71039;SHT30;58692;43.212;27.908;2022-10-16T02:44:03;12.20;68.33
71039;SHT30;58692;43.212;27.908;2022-10-16T02:46:29;12.19;68.02
71039;SHT30;58692;43.212;27.908;2022-10-16T02:48:54;12.06;68.56
71039;SHT30;58692;43.212;27.908;2022-10-16T02:51:20;12.16;68.67
71039;SHT30;58692;43.212;27.908;2022-10-16T02:53:45;12.10;68.27
71039;SHT30;58692;43.212;27.908;2022-10-16T02:56:11;11.99;67.99
71039;SHT30;58692;43.212;27.908;2022-10-16T02:58:36;12.03;67.80
71039;SHT30;58692;43.212;27.908;2022-10-16T03:01:02;12.09;67.51
71039;SHT30;58692;43.212;27.908;2022-10-16T03:03:27;12.13;67.12
71039;SHT30;58692;43.212;27.908;2022-10-16T03:05:53;12.08;67.44
71039;SHT30;58692;43.212;27.908;2022-10-16T03:08:18;12.22;66.94
71039;SHT30;58692;43.212;27.908;2022-10-16T03:10:49;12.10;66.70
71039;SHT30;58692;43.212;27.908;2022-10-16T03:13:14;12.19;66.72
71039;SHT30;58692;43.212;27.908;2022-10-16T03:15:40;12.12;66.68
71039;SHT30;58692;43.212;27.908;2022-10-16T03:18:05;12.02;66.88
71039;SHT30;58692;43.212;27.908;2022-10-16T03:20:31;12.09;66.66
71039;SHT30;58692;43.212;27.908;2022-10-16T03:22:56;12.13;66.50
71039;SHT30;58692;43.212;27.908;2022-10-16T03:25:22;12.08;66.66
71039;SHT30;58692;43.212;27.908;2022-10-16T03:27:47;12.22;66.34
71039;SHT30;58692;43.212;27.908;2022-10-16T03:30:13;12.09;66.51
71039;SHT30;58692;43.212;27.908;2022-10-16T03:32:38;12.13;66.61
71039;SHT30;58692;43.212;27.908;2022-10-16T03:35:04;12.13;66.58
71039;SHT30;58692;43.212;27.908;2022-10-16T03:37:29;12.15;66.58
71039;SHT30;58692;43.212;27.908;2022-10-16T03:39:55;12.22;66.43
71039;SHT30;58692;43.212;27.908;2022-10-16T03:42:20;12.13;66.57
71039;SHT30;58692;43.212;27.908;2022-10-16T03:44:46;12.08;66.65
71039;SHT30;58692;43.212;27.908;2022-10-16T03:47:11;12.20;66.37
71039;SHT30;58692;43.212;27.908;2022-10-16T03:49:37;12.08;66.63
71039;SHT30;58692;43.212;27.908;2022-10-16T03:52:03;12.28;66.33
71039;SHT30;58692;43.212;27.908;2022-10-16T03:54:28;12.22;66.35
71039;SHT30;58692;43.212;27.908;2022-10-16T03:56:54;12.22;66.33
71039;SHT30;58692;43.212;27.908;2022-10-16T03:59:19;12.28;66.27
71039;SHT30;58692;43.212;27.908;2022-10-16T04:01:44;12.20;66.51
71039;SHT30;58692;43.212;27.908;2022-10-16T04:04:10;12.22;66.31
71039;SHT30;58692;43.212;27.908;2022-10-16T04:06:36;12.25;66.14
71039;SHT30;58692;43.212;27.908;2022-10-16T04:09:01;12.18;66.53
71039;SHT30;58692;43.212;27.908;2022-10-16T04:11:27;12.00;67.03
71039;SHT30;58692;43.212;27.908;2022-10-16T04:13:52;12.02;67.16
71039;SHT30;58692;43.212;27.908;2022-10-16T04:16:18;11.99;67.20
71039;SHT30;58692;43.212;27.908;2022-10-16T04:18:43;12.03;67.06
71039;SHT30;58692;43.212;27.908;2022-10-16T04:21:09;11.98;67.17
71039;SHT30;58692;43.212;27.908;2022-10-16T04:23:34;11.93;67.24
71039;SHT30;58692;43.212;27.908;2022-10-16T04:26:00;12.00;67.11
71039;SHT30;58692;43.212;27.908;2022-10-16T04:28:26;11.92;67.28
71039;SHT30;58692;43.212;27.908;2022-10-16T04:30:52;11.90;67.43
71039;SHT30;58692;43.212;27.908;2022-10-16T04:33:17;12.05;67.19
71039;SHT30;58692;43.212;27.908;2022-10-16T04:35:43;11.85;67.50
71039;SHT30;58692;43.212;27.908;2022-10-16T04:38:08;11.79;67.69
71039;SHT30;58692;43.212;27.908;2022-10-16T04:40:34;11.74;67.94
71039;SHT30;58692;43.212;27.908;2022-10-16T04:43:02;11.81;67.96
71039;SHT30;58692;43.212;27.908;2022-10-16T04:45:28;11.88;67.63
71039;SHT30;58692;43.212;27.908;2022-10-16T04:47:57;12.09;66.98
71039;SHT30;58692;43.212;27.908;2022-10-16T04:50:23;12.16;66.67
71039;SHT30;58692;43.212;27.908;2022-10-16T04:52:48;12.33;66.31
71039;SHT30;58692;43.212;27.908;2022-10-16T04:55:14;12.33;66.01
71039;SHT30;58692;43.212;27.908;2022-10-16T04:57:40;12.23;66.13
71039;SHT30;58692;43.212;27.908;2022-10-16T05:00:06;12.30;66.08
71039;SHT30;58692;43.212;27.908;2022-10-16T05:02:31;12.39;65.93
71039;SHT30;58692;43.212;27.908;2022-10-16T05:04:57;12.33;65.93
71039;SHT30;58692;43.212;27.908;2022-10-16T05:07:22;12.53;65.41
71039;SHT30;58692;43.212;27.908;2022-10-16T05:09:48;12.67;64.86
71039;SHT30;58692;43.212;27.908;2022-10-16T05:12:13;12.64;65.05
71039;SHT30;58692;43.212;27.908;2022-10-16T05:14:38;13.01;63.86
71039;SHT30;58692;43.212;27.908;2022-10-16T05:17:04;13.44;62.76
71039;SHT30;58692;43.212;27.908;2022-10-16T05:19:29;13.70;61.71
71039;SHT30;58692;43.212;27.908;2022-10-16T05:21:55;13.96;60.81
71039;SHT30;58692;43.212;27.908;2022-10-16T05:24:21;14.02;60.80
71039;SHT30;58692;43.212;27.908;2022-10-16T05:26:47;14.03;60.22
71039;SHT30;58692;43.212;27.908;2022-10-16T05:29:12;14.02;60.46
71039;SHT30;58692;43.212;27.908;2022-10-16T05:31:38;14.51;59.51
71039;SHT30;58692;43.212;27.908;2022-10-16T05:34:03;15.02;57.79
71039;SHT30;58692;43.212;27.908;2022-10-16T05:36:29;15.23;56.55
71039;SHT30;58692;43.212;27.908;2022-10-16T05:38:54;15.40;56.45
71039;SHT30;58692;43.212;27.908;2022-10-16T05:41:20;15.91;55.26
71039;SHT30;58692;43.212;27.908;2022-10-16T05:43:47;16.17;53.87
71039;SHT30;58692;43.212;27.908;2022-10-16T05:46:13;16.20;53.67
71039;SHT30;58692;43.212;27.908;2022-10-16T05:48:38;16.49;53.15
71039;SHT30;58692;43.212;27.908;2022-10-16T05:51:06;16.40;53.41
71039;SHT30;58692;43.212;27.908;2022-10-16T05:53:33;16.92;52.23
71039;SHT30;58692;43.212;27.908;2022-10-16T05:55:59;16.82;52.20
71039;SHT30;58692;43.212;27.908;2022-10-16T05:58:28;17.40;50.95
71039;SHT30;58692;43.212;27.908;2022-10-16T06:00:58;17.73;49.96
71039;SHT30;58692;43.212;27.908;2022-10-16T06:03:24;17.73;50.13
71039;SHT30;58692;43.212;27.908;2022-10-16T06:05:50;18.12;48.54
71039;SHT30;58692;43.212;27.908;2022-10-16T06:08:17;18.05;49.40
71039;SHT30;58692;43.212;27.908;2022-10-16T06:10:42;18.02;48.94
71039;SHT30;58692;43.212;27.908;2022-10-16T06:13:09;18.73;47.44
71039;SHT30;58692;43.212;27.908;2022-10-16T06:15:34;19.07;46.51
71039;SHT30;58692;43.212;27.908;2022-10-16T06:18:00;18.38;47.57
71039;SHT30;58692;43.212;27.908;2022-10-16T06:20:26;18.52;47.90
71039;SHT30;58692;43.212;27.908;2022-10-16T06:22:51;18.69;47.38
71039;SHT30;58692;43.212;27.908;2022-10-16T06:25:17;18.63;47.51
71039;SHT30;58692;43.212;27.908;2022-10-16T06:27:42;18.87;46.82
71039;SHT30;58692;43.212;27.908;2022-10-16T06:30:08;19.48;45.61
71039;SHT30;58692;43.212;27.908;2022-10-16T06:32:34;18.42;48.65
71039;SHT30;58692;43.212;27.908;2022-10-16T06:35:00;17.88;49.91
71039;SHT30;58692;43.212;27.908;2022-10-16T06:37:26;19.20;46.94
71039;SHT30;58692;43.212;27.908;2022-10-16T06:39:52;18.19;49.81
71039;SHT30;58692;43.212;27.908;2022-10-16T06:42:18;19.11;47.23
71039;SHT30;58692;43.212;27.908;2022-10-16T06:44:43;18.80;47.96
71039;SHT30;58692;43.212;27.908;2022-10-16T06:47:09;19.20;47.31
71039;SHT30;58692;43.212;27.908;2022-10-16T06:49:35;19.93;45.60
71039;SHT30;58692;43.212;27.908;2022-10-16T06:52:00;20.79;44.56
71039;SHT30;58692;43.212;27.908;2022-10-16T06:54:27;20.08;45.74
71039;SHT30;58692;43.212;27.908;2022-10-16T06:56:52;20.50;44.68
71039;SHT30;58692;43.212;27.908;2022-10-16T06:59:20;19.82;45.52
71039;SHT30;58692;43.212;27.908;2022-10-16T07:01:45;20.90;44.40
71039;SHT30;58692;43.212;27.908;2022-10-16T07:04:11;21.00;43.98
71039;SHT30;58692;43.212;27.908;2022-10-16T07:06:37;20.71;44.94
71039;SHT30;58692;43.212;27.908;2022-10-16T07:09:06;21.24;43.88
71039;SHT30;58692;43.212;27.908;2022-10-16T07:11:32;21.10;44.12
71039;SHT30;58692;43.212;27.908;2022-10-16T07:13:59;21.75;42.37
71039;SHT30;58692;43.212;27.908;2022-10-16T07:16:27;21.44;43.49
71039;SHT30;58692;43.212;27.908;2022-10-16T07:18:54;21.30;43.58
71039;SHT30;58692;43.212;27.908;2022-10-16T07:21:24;21.74;42.63
71039;SHT30;58692;43.212;27.908;2022-10-16T07:23:52;21.41;43.58
71039;SHT30;58692;43.212;27.908;2022-10-16T07:26:18;22.16;42.13
71039;SHT30;58692;43.212;27.908;2022-10-16T07:28:44;22.39;41.28
71039;SHT30;58692;43.212;27.908;2022-10-16T07:31:11;21.97;41.81
71039;SHT30;58692;43.212;27.908;2022-10-16T07:33:39;22.21;41.82
71039;SHT30;58692;43.212;27.908;2022-10-16T07:36:07;21.75;42.00
71039;SHT30;58692;43.212;27.908;2022-10-16T07:38:33;22.14;41.41
71039;SHT30;58692;43.212;27.908;2022-10-16T07:41:02;21.83;42.19
71039;SHT30;58692;43.212;27.908;2022-10-16T07:43:28;22.21;41.57
71039;SHT30;58692;43.212;27.908;2022-10-16T07:45:54;22.46;40.97
71039;SHT30;58692;43.212;27.908;2022-10-16T07:48:21;22.35;41.22
71039;SHT30;58692;43.212;27.908;2022-10-16T07:50:47;22.74;40.50
71039;SHT30;58692;43.212;27.908;2022-10-16T07:53:13;22.90;40.21
71039;SHT30;58692;43.212;27.908;2022-10-16T07:55:39;22.07;41.43
71039;SHT30;58692;43.212;27.908;2022-10-16T07:58:05;22.43;40.98
71039;SHT30;58692;43.212;27.908;2022-10-16T08:00:31;23.72;38.94
71039;SHT30;58692;43.212;27.908;2022-10-16T08:02:57;23.79;38.62
71039;SHT30;58692;43.212;27.908;2022-10-16T08:05:27;23.59;38.78
71039;SHT30;58692;43.212;27.908;2022-10-16T08:07:53;23.15;39.65
71039;SHT30;58692;43.212;27.908;2022-10-16T08:10:21;23.29;39.35
71039;SHT30;58692;43.212;27.908;2022-10-16T08:12:46;23.94;38.47
71039;SHT30;58692;43.212;27.908;2022-10-16T08:15:12;23.67;38.13
71039;SHT30;58692;43.212;27.908;2022-10-16T08:17:37;24.23;36.93
71039;SHT30;58692;43.212;27.908;2022-10-16T08:20:03;23.86;37.66
71039;SHT30;58692;43.212;27.908;2022-10-16T08:22:29;23.55;37.78
71039;SHT30;58692;43.212;27.908;2022-10-16T08:24:55;24.04;37.46
71039;SHT30;58692;43.212;27.908;2022-10-16T08:27:20;24.25;36.77
71039;SHT30;58692;43.212;27.908;2022-10-16T08:29:46;23.70;37.99
71039;SHT30;58692;43.212;27.908;2022-10-16T08:32:11;23.77;37.62
71039;SHT30;58692;43.212;27.908;2022-10-16T08:34:37;24.30;36.56
71039;SHT30;58692;43.212;27.908;2022-10-16T08:37:02;24.09;36.83
71039;SHT30;58692;43.212;27.908;2022-10-16T08:39:28;24.10;37.16
71039;SHT30;58692;43.212;27.908;2022-10-16T08:45:08;23.80;36.84
71039;SHT30;58692;43.212;27.908;2022-10-16T08:47:51;24.06;36.48
71039;SHT30;58692;43.212;27.908;2022-10-16T08:50:25;23.63;36.92
71039;SHT30;58692;43.212;27.908;2022-10-16T08:52:53;23.14;37.96
71039;SHT30;58692;43.212;27.908;2022-10-16T08:55:37;22.95;38.41
71039;SHT30;58692;43.212;27.908;2022-10-16T08:58:12;23.19;37.91
71039;SHT30;58692;43.212;27.908;2022-10-16T09:00:39;23.66;37.00
71039;SHT30;58692;43.212;27.908;2022-10-16T09:11:48;24.13;35.57
71039;SHT30;58692;43.212;27.908;2022-10-16T09:17:34;23.66;36.45
71039;SHT30;58692;43.212;27.908;2022-10-16T09:20:14;24.21;36.00
71039;SHT30;58692;43.212;27.908;2022-10-16T09:22:42;24.47;34.90
71039;SHT30;58692;43.212;27.908;2022-10-16T09:25:14;24.68;34.75
71039;SHT30;58692;43.212;27.908;2022-10-16T09:27:40;24.28;35.13
71039;SHT30;58692;43.212;27.908;2022-10-16T09:32:38;24.65;34.68
71039;SHT30;58692;43.212;27.908;2022-10-16T09:35:14;25.14;33.89
71039;SHT30;58692;43.212;27.908;2022-10-16T09:37:40;24.57;34.64
71039;SHT30;58692;43.212;27.908;2022-10-16T09:40:11;24.33;35.25
71039;SHT30;58692;43.212;27.908;2022-10-16T09:42:37;24.79;34.80
71039;SHT30;58692;43.212;27.908;2022-10-16T09:45:03;24.96;34.62
71039;SHT30;58692;43.212;27.908;2022-10-16T09:47:30;25.02;34.53
71039;SHT30;58692;43.212;27.908;2022-10-16T09:49:59;25.06;34.41
71039;SHT30;58692;43.212;27.908;2022-10-16T09:52:28;25.73;33.25
71039;SHT30;58692;43.212;27.908;2022-10-16T09:55:00;26.22;32.85
71039;SHT30;58692;43.212;27.908;2022-10-16T09:57:27;26.27;32.85
71039;SHT30;58692;43.212;27.908;2022-10-16T09:59:55;26.72;31.80
71039;SHT30;58692;43.212;27.908;2022-10-16T10:02:33;26.37;32.18
71039;SHT30;58692;43.212;27.908;2022-10-16T10:04:59;26.21;32.26
71039;SHT30;58692;43.212;27.908;2022-10-16T10:07:30;25.71;32.07
71039;SHT30;58692;43.212;27.908;2022-10-16T10:10:00;24.68;33.72
71039;SHT30;58692;43.212;27.908;2022-10-16T10:12:28;24.03;35.22
71039;SHT30;58692;43.212;27.908;2022-10-16T10:14:56;23.89;35.53
71039;SHT30;58692;43.212;27.908;2022-10-16T10:17:25;23.92;35.69
71039;SHT30;58692;43.212;27.908;2022-10-16T10:19:57;25.25;34.01
71039;SHT30;58692;43.212;27.908;2022-10-16T10:22:28;25.35;33.75
71039;SHT30;58692;43.212;27.908;2022-10-16T10:27:29;25.42;33.29
71039;SHT30;58692;43.212;27.908;2022-10-16T10:30:18;24.57;34.09
71039;SHT30;58692;43.212;27.908;2022-10-16T10:35:24;24.63;34.80
71039;SHT30;58692;43.212;27.908;2022-10-16T10:45:42;25.90;32.34
71039;SHT30;58692;43.212;27.908;2022-10-16T10:51:10;26.21;31.81
71039;SHT30;58692;43.212;27.908;2022-10-16T10:53:52;25.63;32.44
71039;SHT30;58692;43.212;27.908;2022-10-16T10:56:42;24.67;33.98
71039;SHT30;58692;43.212;27.908;2022-10-16T11:01:56;25.19;32.53
71039;SHT30;58692;43.212;27.908;2022-10-16T11:09:53;24.53;34.68
71039;SHT30;58692;43.212;27.908;2022-10-16T11:12:21;24.67;33.94
71039;SHT30;58692;43.212;27.908;2022-10-16T11:14:58;24.89;34.14
71039;SHT30;58692;43.212;27.908;2022-10-16T11:17:31;25.50;32.96
71039;SHT30;58692;43.212;27.908;2022-10-16T11:20:14;26.16;31.59
71039;SHT30;58692;43.212;27.908;2022-10-16T11:22:48;26.72;30.72
71039;SHT30;58692;43.212;27.908;2022-10-16T11:30:31;25.87;31.76
71039;SHT30;58692;43.212;27.908;2022-10-16T11:41:02;25.11;32.11
71039;SHT30;58692;43.212;27.908;2022-10-16T11:43:37;25.90;31.44
71039;SHT30;58692;43.212;27.908;2022-10-16T11:46:11;26.08;31.71
71039;SHT30;58692;43.212;27.908;2022-10-16T11:51:18;25.54;32.30
71039;SHT30;58692;43.212;27.908;2022-10-16T11:53:53;24.74;33.45
71039;SHT30;58692;43.212;27.908;2022-10-16T11:56:22;25.42;32.63
71039;SHT30;58692;43.212;27.908;2022-10-16T11:59:05;25.74;32.10
71039;SHT30;58692;43.212;27.908;2022-10-16T12:01:46;26.02;31.63
71039;SHT30;58692;43.212;27.908;2022-10-16T12:04:27;26.01;31.28
71039;SHT30;58692;43.212;27.908;2022-10-16T12:07:09;26.20;31.06
71039;SHT30;58692;43.212;27.908;2022-10-16T12:09:38;25.93;31.10
71039;SHT30;58692;43.212;27.908;2022-10-16T12:12:22;26.38;30.37
71039;SHT30;58692;43.212;27.908;2022-10-16T12:15:00;25.42;31.99
71039;SHT30;58692;43.212;27.908;2022-10-16T12:17:35;26.07;31.67
71039;SHT30;58692;43.212;27.908;2022-10-16T12:20:20;26.18;31.75
71039;SHT30;58692;43.212;27.908;2022-10-16T12:22:51;25.56;32.23
71039;SHT30;58692;43.212;27.908;2022-10-16T12:25:26;26.00;31.75
71039;SHT30;58692;43.212;27.908;2022-10-16T12:28:04;24.81;33.50
71039;SHT30;58692;43.212;27.908;2022-10-16T12:30:34;24.04;34.48
71039;SHT30;58692;43.212;27.908;2022-10-16T12:33:03;23.58;35.48
71039;SHT30;58692;43.212;27.908;2022-10-16T12:35:33;24.13;34.89
71039;SHT30;58692;43.212;27.908;2022-10-16T12:38:17;24.14;34.39
71039;SHT30;58692;43.212;27.908;2022-10-16T12:40:44;24.16;33.71
71039;SHT30;58692;43.212;27.908;2022-10-16T12:48:34;22.33;36.23
71039;SHT30;58692;43.212;27.908;2022-10-16T12:51:25;21.78;37.73
71039;SHT30;58692;43.212;27.908;2022-10-16T12:54:14;21.42;38.68
71039;SHT30;58692;43.212;27.908;2022-10-16T13:10:00;20.16;40.82
71039;SHT30;58692;43.212;27.908;2022-10-16T13:18:19;20.13;41.15
71039;SHT30;58692;43.212;27.908;2022-10-16T13:23:40;20.44;40.66
71039;SHT30;58692;43.212;27.908;2022-10-16T13:26:31;20.29;40.96
71039;SHT30;58692;43.212;27.908;2022-10-16T13:29:01;20.13;41.36
71039;SHT30;58692;43.212;27.908;2022-10-16T13:31:28;19.89;41.51
71039;SHT30;58692;43.212;27.908;2022-10-16T13:33:57;19.75;42.30
71039;SHT30;58692;43.212;27.908;2022-10-16T13:36:25;19.65;42.34
71039;SHT30;58692;43.212;27.908;2022-10-16T13:39:11;19.64;42.20
71039;SHT30;58692;43.212;27.908;2022-10-16T13:41:38;19.85;41.79
71039;SHT30;58692;43.212;27.908;2022-10-16T13:44:04;19.64;42.17
71039;SHT30;58692;43.212;27.908;2022-10-16T13:46:30;19.44;42.66
71039;SHT30;58692;43.212;27.908;2022-10-16T13:49:03;19.20;42.79
71039;SHT30;58692;43.212;27.908;2022-10-16T13:51:29;19.08;42.97
71039;SHT30;58692;43.212;27.908;2022-10-16T13:53:56;19.11;43.09
71039;SHT30;58692;43.212;27.908;2022-10-16T13:56:25;19.10;42.93
71039;SHT30;58692;43.212;27.908;2022-10-16T13:59:02;19.00;43.35
71039;SHT30;58692;43.212;27.908;2022-10-16T14:01:30;18.86;43.27
71039;SHT30;58692;43.212;27.908;2022-10-16T14:04:03;18.76;43.69
71039;SHT30;58692;43.212;27.908;2022-10-16T14:06:30;18.72;43.76
71039;SHT30;58692;43.212;27.908;2022-10-16T14:09:06;18.52;43.79
71039;SHT30;58692;43.212;27.908;2022-10-16T14:11:33;18.65;43.92
71039;SHT30;58692;43.212;27.908;2022-10-16T14:14:00;18.73;43.81
71039;SHT30;58692;43.212;27.908;2022-10-16T14:16:28;18.82;43.30
71039;SHT30;58692;43.212;27.908;2022-10-16T14:18:56;18.93;43.21
71039;SHT30;58692;43.212;27.908;2022-10-16T14:21:22;18.87;43.11
71039;SHT30;58692;43.212;27.908;2022-10-16T14:23:48;19.02;42.97
71039;SHT30;58692;43.212;27.908;2022-10-16T14:26:16;19.03;42.69
71039;SHT30;58692;43.212;27.908;2022-10-16T14:28:43;18.92;42.73
71039;SHT30;58692;43.212;27.908;2022-10-16T14:31:26;18.67;43.06
71039;SHT30;58692;43.212;27.908;2022-10-16T14:33:51;18.52;43.39
71039;SHT30;58692;43.212;27.908;2022-10-16T14:36:17;18.39;43.54
71039;SHT30;58692;43.212;27.908;2022-10-16T14:41:30;18.39;43.60
71039;SHT30;58692;43.212;27.908;2022-10-16T14:44:01;18.55;43.34
71039;SHT30;58692;43.212;27.908;2022-10-16T14:46:32;18.49;43.45
71039;SHT30;58692;43.212;27.908;2022-10-16T14:49:02;18.55;43.27
71039;SHT30;58692;43.212;27.908;2022-10-16T14:51:29;18.41;43.38
71039;SHT30;58692;43.212;27.908;2022-10-16T14:53:54;18.26;43.85
71039;SHT30;58692;43.212;27.908;2022-10-16T14:56:23;18.28;43.93
71039;SHT30;58692;43.212;27.908;2022-10-16T14:58:51;18.28;44.02
71039;SHT30;58692;43.212;27.908;2022-10-16T15:01:17;18.13;44.04
71039;SHT30;58692;43.212;27.908;2022-10-16T15:03:43;18.02;44.40
71039;SHT30;58692;43.212;27.908;2022-10-16T15:06:13;18.11;44.42
71039;SHT30;58692;43.212;27.908;2022-10-16T15:08:39;17.78;44.66
71039;SHT30;58692;43.212;27.908;2022-10-16T15:11:12;17.82;44.61
71039;SHT30;58692;43.212;27.908;2022-10-16T15:13:39;17.98;44.30
71039;SHT30;58692;43.212;27.908;2022-10-16T15:16:07;17.82;44.18
71039;SHT30;58692;43.212;27.908;2022-10-16T15:18:33;17.75;44.35
71039;SHT30;58692;43.212;27.908;2022-10-16T15:20:58;17.81;44.23
71039;SHT30;58692;43.212;27.908;2022-10-16T15:23:24;17.94;43.95
71039;SHT30;58692;43.212;27.908;2022-10-16T15:25:52;17.88;43.91
71039;SHT30;58692;43.212;27.908;2022-10-16T15:28:18;17.88;43.77
71039;SHT30;58692;43.212;27.908;2022-10-16T15:30:45;18.00;43.59
71039;SHT30;58692;43.212;27.908;2022-10-16T15:33:15;17.91;43.73
71039;SHT30;58692;43.212;27.908;2022-10-16T15:35:41;17.82;43.89
71039;SHT30;58692;43.212;27.908;2022-10-16T15:38:10;17.71;43.95
71039;SHT30;58692;43.212;27.908;2022-10-16T15:40:37;17.66;44.27
71039;SHT30;58692;43.212;27.908;2022-10-16T15:43:02;17.37;44.84
71039;SHT30;58692;43.212;27.908;2022-10-16T15:45:28;17.63;44.54
71039;SHT30;58692;43.212;27.908;2022-10-16T15:47:54;17.73;44.40
71039;SHT30;58692;43.212;27.908;2022-10-16T15:50:19;17.77;44.29
71039;SHT30;58692;43.212;27.908;2022-10-16T15:52:45;17.29;45.49
71039;SHT30;58692;43.212;27.908;2022-10-16T15:55:13;17.12;46.09
71039;SHT30;58692;43.212;27.908;2022-10-16T15:57:39;17.19;46.06
71039;SHT30;58692;43.212;27.908;2022-10-16T16:00:08;17.15;46.35
71039;SHT30;58692;43.212;27.908;2022-10-16T16:02:35;16.98;46.86
71039;SHT30;58692;43.212;27.908;2022-10-16T16:05:00;17.02;47.05
71039;SHT30;58692;43.212;27.908;2022-10-16T16:07:27;17.20;46.86
71039;SHT30;58692;43.212;27.908;2022-10-16T16:09:53;17.33;46.61
71039;SHT30;58692;43.212;27.908;2022-10-16T16:12:18;16.98;47.65
71039;SHT30;58692;43.212;27.908;2022-10-16T16:14:44;17.05;47.80
71039;SHT30;58692;43.212;27.908;2022-10-16T16:17:11;16.96;48.37
71039;SHT30;58692;43.212;27.908;2022-10-16T16:19:36;16.95;48.62
71039;SHT30;58692;43.212;27.908;2022-10-16T16:22:02;16.79;49.29
71039;SHT30;58692;43.212;27.908;2022-10-16T16:24:27;16.68;49.90
71039;SHT30;58692;43.212;27.908;2022-10-16T16:26:53;16.88;49.53
71039;SHT30;58692;43.212;27.908;2022-10-16T16:29:18;16.73;50.11
71039;SHT30;58692;43.212;27.908;2022-10-16T16:31:44;16.71;50.45
71039;SHT30;58692;43.212;27.908;2022-10-16T16:34:12;16.52;51.11
71039;SHT30;58692;43.212;27.908;2022-10-16T16:36:38;16.41;51.61
71039;SHT30;58692;43.212;27.908;2022-10-16T16:39:05;16.41;51.68
71039;SHT30;58692;43.212;27.908;2022-10-16T16:41:31;16.45;51.60
71039;SHT30;58692;43.212;27.908;2022-10-16T16:44:07;16.42;51.56
71039;SHT30;58692;43.212;27.908;2022-10-16T16:46:34;16.24;52.06
71039;SHT30;58692;43.212;27.908;2022-10-16T16:49:01;16.40;51.79
71039;SHT30;58692;43.212;27.908;2022-10-16T16:51:27;16.41;51.74
71039;SHT30;58692;43.212;27.908;2022-10-16T16:53:53;16.54;51.47
71039;SHT30;58692;43.212;27.908;2022-10-16T16:56:21;16.56;51.28
71039;SHT30;58692;43.212;27.908;2022-10-16T16:58:48;16.51;51.25